Terminal Aerodrome Forecast
Issued by NWS Detroit/Pontiac, MI

Home | Current Version | Previous Version | Text Only | Print | Product List | Glossary On
Versions: 1 2 3 4 5 6 7 8 9 10 11 12 13 14 15 16 17 18 19 20 21 22 23 24 25
000
FTUS43 KDTX 301700
TAFDTW
TAF
KDTW 301734Z 3018/0124 35009KT P6SM OVC015
      TEMPO 3018/3020 6SM -DZ OVC012
     FM010800 VRB03KT 4SM BR BKN006
     FM011400 05005KT P6SM OVC016
     FM011900 08005KT P6SM BKN020=

USA.gov is the U.S. government's official web portal to all federal, state and local government web resources and services.